sensor_id;sensor_type;location;lat;lon;timestamp;P1;durP1;ratioP1;P2;durP2;ratioP2
39128;SDS011;24864;49.940;19.770;2022-08-19T00:27:49;19.42;;;17.42;;
39128;SDS011;24864;49.940;19.770;2022-08-19T00:30:17;19.10;;;16.88;;
39128;SDS011;24864;49.940;19.770;2022-08-19T00:32:45;24.80;;;17.63;;
39128;SDS011;24864;49.940;19.770;2022-08-19T00:35:13;20.52;;;17.40;;
39128;SDS011;24864;49.940;19.770;2022-08-19T00:37:41;19.58;;;16.92;;
39128;SDS011;24864;49.940;19.770;2022-08-19T00:40:10;21.70;;;16.65;;
39128;SDS011;24864;49.940;19.770;2022-08-19T00:42:39;20.65;;;16.98;;
39128;SDS011;24864;49.940;19.770;2022-08-19T00:45:11;19.25;;;17.30;;
39128;SDS011;24864;49.940;19.770;2022-08-19T00:47:41;18.55;;;16.65;;
39128;SDS011;24864;49.940;19.770;2022-08-19T00:50:09;19.50;;;17.50;;
39128;SDS011;24864;49.940;19.770;2022-08-19T00:52:39;19.35;;;17.23;;
39128;SDS011;24864;49.940;19.770;2022-08-19T00:55:12;20.80;;;18.33;;
39128;SDS011;24864;49.940;19.770;2022-08-19T00:57:44;20.88;;;18.35;;
39128;SDS011;24864;49.940;19.770;2022-08-19T01:00:17;20.63;;;18.10;;
39128;SDS011;24864;49.940;19.770;2022-08-19T01:02:46;18.83;;;17.07;;
39128;SDS011;24864;49.940;19.770;2022-08-19T01:05:16;20.83;;;17.85;;
39128;SDS011;24864;49.940;19.770;2022-08-19T01:07:47;20.88;;;18.15;;
39128;SDS011;24864;49.940;19.770;2022-08-19T01:10:17;19.98;;;17.88;;
39128;SDS011;24864;49.940;19.770;2022-08-19T01:12:48;23.60;;;18.38;;
39128;SDS011;24864;49.940;19.770;2022-08-19T01:15:20;21.08;;;17.83;;
39128;SDS011;24864;49.940;19.770;2022-08-19T01:17:51;21.80;;;16.85;;
39128;SDS011;24864;49.940;19.770;2022-08-19T01:20:23;21.33;;;18.48;;
39128;SDS011;24864;49.940;19.770;2022-08-19T01:22:53;21.70;;;18.83;;
39128;SDS011;24864;49.940;19.770;2022-08-19T01:25:28;21.35;;;19.17;;
39128;SDS011;24864;49.940;19.770;2022-08-19T01:27:59;22.17;;;19.25;;
39128;SDS011;24864;49.940;19.770;2022-08-19T01:30:36;21.08;;;18.77;;
39128;SDS011;24864;49.940;19.770;2022-08-19T01:33:09;23.02;;;19.13;;
39128;SDS011;24864;49.940;19.770;2022-08-19T01:35:38;23.55;;;18.85;;
39128;SDS011;24864;49.940;19.770;2022-08-19T01:38:10;20.15;;;18.08;;
39128;SDS011;24864;49.940;19.770;2022-08-19T01:40:47;21.55;;;19.02;;
39128;SDS011;24864;49.940;19.770;2022-08-19T01:43:15;24.08;;;20.60;;
39128;SDS011;24864;49.940;19.770;2022-08-19T01:45:45;22.77;;;20.38;;
39128;SDS011;24864;49.940;19.770;2022-08-19T01:48:14;24.20;;;18.85;;
39128;SDS011;24864;49.940;19.770;2022-08-19T01:50:41;20.60;;;18.60;;
39128;SDS011;24864;49.940;19.770;2022-08-19T01:53:11;21.83;;;19.48;;
39128;SDS011;24864;49.940;19.770;2022-08-19T01:55:41;24.58;;;19.13;;
39128;SDS011;24864;49.940;19.770;2022-08-19T01:58:12;25.20;;;19.88;;
39128;SDS011;24864;49.940;19.770;2022-08-19T02:00:43;21.58;;;19.08;;
39128;SDS011;24864;49.940;19.770;2022-08-19T02:03:13;22.52;;;20.25;;
39128;SDS011;24864;49.940;19.770;2022-08-19T02:05:42;22.40;;;20.13;;
39128;SDS011;24864;49.940;19.770;2022-08-19T02:08:13;23.38;;;20.38;;
39128;SDS011;24864;49.940;19.770;2022-08-19T02:10:42;23.55;;;20.55;;
39128;SDS011;24864;49.940;19.770;2022-08-19T02:13:11;23.50;;;21.20;;
39128;SDS011;24864;49.940;19.770;2022-08-19T02:15:41;24.23;;;21.73;;
39128;SDS011;24864;49.940;19.770;2022-08-19T02:18:09;23.73;;;21.33;;
39128;SDS011;24864;49.940;19.770;2022-08-19T02:20:38;23.00;;;20.23;;
39128;SDS011;24864;49.940;19.770;2022-08-19T02:23:07;24.25;;;21.67;;
39128;SDS011;24864;49.940;19.770;2022-08-19T02:25:41;21.88;;;19.65;;
39128;SDS011;24864;49.940;19.770;2022-08-19T02:28:11;23.05;;;20.67;;
39128;SDS011;24864;49.940;19.770;2022-08-19T02:30:44;21.95;;;19.88;;
39128;SDS011;24864;49.940;19.770;2022-08-19T02:33:14;24.58;;;21.92;;
39128;SDS011;24864;49.940;19.770;2022-08-19T02:35:43;22.80;;;20.40;;
39128;SDS011;24864;49.940;19.770;2022-08-19T02:38:12;23.73;;;20.95;;
39128;SDS011;24864;49.940;19.770;2022-08-19T02:40:55;29.07;;;20.87;;
39128;SDS011;24864;49.940;19.770;2022-08-19T02:43:25;23.95;;;19.98;;
39128;SDS011;24864;49.940;19.770;2022-08-19T02:45:59;22.50;;;20.10;;
39128;SDS011;24864;49.940;19.770;2022-08-19T02:48:27;25.13;;;20.00;;
39128;SDS011;24864;49.940;19.770;2022-08-19T02:50:55;23.95;;;19.80;;
39128;SDS011;24864;49.940;19.770;2022-08-19T02:53:25;25.50;;;19.77;;
39128;SDS011;24864;49.940;19.770;2022-08-19T02:55:55;22.97;;;19.80;;
39128;SDS011;24864;49.940;19.770;2022-08-19T02:58:24;21.92;;;19.75;;
39128;SDS011;24864;49.940;19.770;2022-08-19T03:00:53;22.23;;;19.75;;
39128;SDS011;24864;49.940;19.770;2022-08-19T03:03:23;20.73;;;18.83;;
39128;SDS011;24864;49.940;19.770;2022-08-19T03:05:51;21.08;;;19.10;;
39128;SDS011;24864;49.940;19.770;2022-08-19T03:08:22;27.77;;;20.75;;
39128;SDS011;24864;49.940;19.770;2022-08-19T03:10:52;22.88;;;20.50;;
39128;SDS011;24864;49.940;19.770;2022-08-19T03:13:21;21.70;;;19.27;;
39128;SDS011;24864;49.940;19.770;2022-08-19T03:15:50;21.60;;;18.98;;
39128;SDS011;24864;49.940;19.770;2022-08-19T03:18:18;21.48;;;19.27;;
39128;SDS011;24864;49.940;19.770;2022-08-19T03:20:49;22.33;;;20.08;;
39128;SDS011;24864;49.940;19.770;2022-08-19T03:23:21;23.00;;;20.63;;
39128;SDS011;24864;49.940;19.770;2022-08-19T03:25:51;20.33;;;18.48;;
39128;SDS011;24864;49.940;19.770;2022-08-19T03:28:41;20.25;;;18.23;;
39128;SDS011;24864;49.940;19.770;2022-08-19T03:31:18;20.27;;;18.38;;
39128;SDS011;24864;49.940;19.770;2022-08-19T03:34:07;19.08;;;17.27;;
39128;SDS011;24864;49.940;19.770;2022-08-19T03:36:35;20.40;;;17.00;;
39128;SDS011;24864;49.940;19.770;2022-08-19T03:39:04;21.58;;;17.45;;
39128;SDS011;24864;49.940;19.770;2022-08-19T03:41:33;18.23;;;16.52;;
39128;SDS011;24864;49.940;19.770;2022-08-19T03:44:13;18.08;;;16.48;;
39128;SDS011;24864;49.940;19.770;2022-08-19T03:46:44;19.10;;;16.45;;
39128;SDS011;24864;49.940;19.770;2022-08-19T03:49:14;22.20;;;16.63;;
39128;SDS011;24864;49.940;19.770;2022-08-19T03:51:44;19.30;;;17.33;;
39128;SDS011;24864;49.940;19.770;2022-08-19T03:54:14;19.10;;;17.17;;
39128;SDS011;24864;49.940;19.770;2022-08-19T03:56:44;18.10;;;16.45;;
39128;SDS011;24864;49.940;19.770;2022-08-19T03:59:16;19.83;;;14.75;;
39128;SDS011;24864;49.940;19.770;2022-08-19T04:01:47;19.45;;;15.27;;
39128;SDS011;24864;49.940;19.770;2022-08-19T04:04:14;17.00;;;15.50;;
39128;SDS011;24864;49.940;19.770;2022-08-19T04:06:45;18.08;;;16.30;;
39128;SDS011;24864;49.940;19.770;2022-08-19T04:09:14;17.65;;;15.77;;
39128;SDS011;24864;49.940;19.770;2022-08-19T04:11:43;18.83;;;16.02;;
39128;SDS011;24864;49.940;19.770;2022-08-19T04:14:14;17.35;;;15.55;;
39128;SDS011;24864;49.940;19.770;2022-08-19T04:16:46;17.45;;;15.75;;
39128;SDS011;24864;49.940;19.770;2022-08-19T04:19:16;17.25;;;15.45;;
39128;SDS011;24864;49.940;19.770;2022-08-19T04:21:46;19.23;;;16.15;;
39128;SDS011;24864;49.940;19.770;2022-08-19T04:24:16;16.70;;;14.90;;
39128;SDS011;24864;49.940;19.770;2022-08-19T04:26:44;16.83;;;15.23;;
39128;SDS011;24864;49.940;19.770;2022-08-19T04:29:13;17.95;;;13.98;;
39128;SDS011;24864;49.940;19.770;2022-08-19T04:31:44;16.45;;;14.70;;
39128;SDS011;24864;49.940;19.770;2022-08-19T04:34:13;17.15;;;15.40;;
39128;SDS011;24864;49.940;19.770;2022-08-19T04:36:45;16.58;;;15.07;;
39128;SDS011;24864;49.940;19.770;2022-08-19T04:39:14;20.50;;;14.48;;
39128;SDS011;24864;49.940;19.770;2022-08-19T04:41:43;17.15;;;15.40;;
39128;SDS011;24864;49.940;19.770;2022-08-19T04:44:29;21.13;;;15.02;;
39128;SDS011;24864;49.940;19.770;2022-08-19T04:47:02;19.13;;;16.77;;
39128;SDS011;24864;49.940;19.770;2022-08-19T04:49:37;18.65;;;16.75;;
39128;SDS011;24864;49.940;19.770;2022-08-19T04:52:05;19.95;;;17.00;;
39128;SDS011;24864;49.940;19.770;2022-08-19T04:54:34;18.85;;;16.88;;
39128;SDS011;24864;49.940;19.770;2022-08-19T04:57:05;19.38;;;17.58;;
39128;SDS011;24864;49.940;19.770;2022-08-19T04:59:38;19.38;;;16.88;;
39128;SDS011;24864;49.940;19.770;2022-08-19T05:02:08;18.02;;;16.23;;
39128;SDS011;24864;49.940;19.770;2022-08-19T05:04:36;19.65;;;16.42;;
39128;SDS011;24864;49.940;19.770;2022-08-19T05:07:06;17.95;;;16.02;;
39128;SDS011;24864;49.940;19.770;2022-08-19T05:09:34;18.70;;;16.88;;
39128;SDS011;24864;49.940;19.770;2022-08-19T05:12:23;18.60;;;16.45;;
39128;SDS011;24864;49.940;19.770;2022-08-19T05:14:55;17.85;;;15.98;;
39128;SDS011;24864;49.940;19.770;2022-08-19T05:17:25;20.73;;;15.55;;
39128;SDS011;24864;49.940;19.770;2022-08-19T05:20:02;21.23;;;15.98;;
39128;SDS011;24864;49.940;19.770;2022-08-19T05:22:48;20.35;;;16.30;;
39128;SDS011;24864;49.940;19.770;2022-08-19T05:25:17;17.88;;;14.90;;
39128;SDS011;24864;49.940;19.770;2022-08-19T05:27:47;21.95;;;15.70;;
39128;SDS011;24864;49.940;19.770;2022-08-19T05:30:16;22.15;;;16.65;;
39128;SDS011;24864;49.940;19.770;2022-08-19T05:33:05;18.33;;;16.55;;
39128;SDS011;24864;49.940;19.770;2022-08-19T05:35:36;23.02;;;17.92;;
39128;SDS011;24864;49.940;19.770;2022-08-19T05:38:05;19.00;;;17.23;;
39128;SDS011;24864;49.940;19.770;2022-08-19T05:40:34;25.42;;;20.27;;
39128;SDS011;24864;49.940;19.770;2022-08-19T05:43:04;26.85;;;20.92;;
39128;SDS011;24864;49.940;19.770;2022-08-19T05:45:37;29.77;;;24.23;;
39128;SDS011;24864;49.940;19.770;2022-08-19T05:48:08;29.10;;;25.42;;
39128;SDS011;24864;49.940;19.770;2022-08-19T05:50:37;32.67;;;24.52;;
39128;SDS011;24864;49.940;19.770;2022-08-19T05:53:06;33.45;;;25.40;;
39128;SDS011;24864;49.940;19.770;2022-08-19T05:55:35;31.30;;;24.73;;
39128;SDS011;24864;49.940;19.770;2022-08-19T05:58:04;27.63;;;24.75;;
39128;SDS011;24864;49.940;19.770;2022-08-19T06:00:33;27.35;;;24.50;;
39128;SDS011;24864;49.940;19.770;2022-08-19T06:03:02;27.27;;;24.27;;
39128;SDS011;24864;49.940;19.770;2022-08-19T06:05:40;27.27;;;24.13;;
39128;SDS011;24864;49.940;19.770;2022-08-19T06:08:18;34.60;;;24.55;;
39128;SDS011;24864;49.940;19.770;2022-08-19T06:11:11;29.30;;;22.90;;
39128;SDS011;24864;49.940;19.770;2022-08-19T06:13:41;33.35;;;22.50;;
39128;SDS011;24864;49.940;19.770;2022-08-19T06:16:10;33.83;;;24.02;;
39128;SDS011;24864;49.940;19.770;2022-08-19T06:18:38;33.35;;;24.20;;
39128;SDS011;24864;49.940;19.770;2022-08-19T06:21:07;27.33;;;24.42;;
39128;SDS011;24864;49.940;19.770;2022-08-19T06:23:35;33.08;;;27.42;;
39128;SDS011;24864;49.940;19.770;2022-08-19T06:26:03;34.90;;;29.45;;
39128;SDS011;24864;49.940;19.770;2022-08-19T06:28:31;45.63;;;28.75;;
39128;SDS011;24864;49.940;19.770;2022-08-19T06:31:05;35.53;;;30.63;;
39128;SDS011;24864;49.940;19.770;2022-08-19T06:33:33;44.63;;;34.75;;
39128;SDS011;24864;49.940;19.770;2022-08-19T06:36:01;45.85;;;37.95;;
39128;SDS011;24864;49.940;19.770;2022-08-19T06:38:31;48.58;;;38.85;;
39128;SDS011;24864;49.940;19.770;2022-08-19T06:41:01;63.08;;;47.85;;
39128;SDS011;24864;49.940;19.770;2022-08-19T06:43:33;64.20;;;47.83;;
39128;SDS011;24864;49.940;19.770;2022-08-19T06:46:11;63.83;;;45.05;;
39128;SDS011;24864;49.940;19.770;2022-08-19T06:48:41;63.70;;;43.10;;
39128;SDS011;24864;49.940;19.770;2022-08-19T06:51:11;52.38;;;42.15;;
39128;SDS011;24864;49.940;19.770;2022-08-19T06:53:46;62.40;;;39.78;;
39128;SDS011;24864;49.940;19.770;2022-08-19T06:56:20;52.13;;;36.83;;
39128;SDS011;24864;49.940;19.770;2022-08-19T06:58:51;45.17;;;34.92;;
39128;SDS011;24864;49.940;19.770;2022-08-19T07:01:19;47.83;;;31.63;;
39128;SDS011;24864;49.940;19.770;2022-08-19T07:03:48;33.28;;;29.67;;
39128;SDS011;24864;49.940;19.770;2022-08-19T07:06:17;31.85;;;28.55;;
39128;SDS011;24864;49.940;19.770;2022-08-19T07:09:08;35.47;;;28.75;;
39128;SDS011;24864;49.940;19.770;2022-08-19T07:11:37;42.75;;;27.05;;
39128;SDS011;24864;49.940;19.770;2022-08-19T07:14:05;30.00;;;24.13;;
39128;SDS011;24864;49.940;19.770;2022-08-19T07:16:46;37.90;;;23.50;;
39128;SDS011;24864;49.940;19.770;2022-08-19T07:19:15;26.65;;;23.85;;
39128;SDS011;24864;49.940;19.770;2022-08-19T07:21:46;34.05;;;24.88;;
39128;SDS011;24864;49.940;19.770;2022-08-19T07:24:18;31.58;;;24.27;;
39128;SDS011;24864;49.940;19.770;2022-08-19T07:26:46;27.58;;;21.60;;
39128;SDS011;24864;49.940;19.770;2022-08-19T07:29:18;24.65;;;21.38;;
39128;SDS011;24864;49.940;19.770;2022-08-19T07:31:54;20.58;;;16.85;;
39128;SDS011;24864;49.940;19.770;2022-08-19T07:34:27;22.95;;;16.92;;
39128;SDS011;24864;49.940;19.770;2022-08-19T07:36:56;22.75;;;14.90;;
39128;SDS011;24864;49.940;19.770;2022-08-19T07:39:27;20.33;;;15.27;;
39128;SDS011;24864;49.940;19.770;2022-08-19T07:41:57;14.80;;;13.50;;
39128;SDS011;24864;49.940;19.770;2022-08-19T07:44:28;14.60;;;12.85;;
39128;SDS011;24864;49.940;19.770;2022-08-19T07:46:57;15.20;;;13.68;;
39128;SDS011;24864;49.940;19.770;2022-08-19T07:49:26;18.58;;;13.93;;
39128;SDS011;24864;49.940;19.770;2022-08-19T07:51:55;17.52;;;12.80;;
39128;SDS011;24864;49.940;19.770;2022-08-19T07:54:27;14.20;;;12.60;;
39128;SDS011;24864;49.940;19.770;2022-08-19T07:56:58;16.13;;;12.05;;
39128;SDS011;24864;49.940;19.770;2022-08-19T07:59:25;12.55;;;11.38;;
39128;SDS011;24864;49.940;19.770;2022-08-19T08:01:54;14.95;;;11.45;;
39128;SDS011;24864;49.940;19.770;2022-08-19T08:04:23;18.48;;;12.05;;
39128;SDS011;24864;49.940;19.770;2022-08-19T08:07:08;13.13;;;11.82;;
39128;SDS011;24864;49.940;19.770;2022-08-19T08:09:59;13.50;;;10.95;;
39128;SDS011;24864;49.940;19.770;2022-08-19T08:12:29;14.98;;;11.73;;
39128;SDS011;24864;49.940;19.770;2022-08-19T08:15:02;17.08;;;13.25;;
39128;SDS011;24864;49.940;19.770;2022-08-19T08:17:37;15.52;;;13.75;;
39128;SDS011;24864;49.940;19.770;2022-08-19T08:20:16;17.77;;;13.82;;
39128;SDS011;24864;49.940;19.770;2022-08-19T08:22:45;23.35;;;15.02;;
39128;SDS011;24864;49.940;19.770;2022-08-19T08:25:33;19.80;;;13.65;;
39128;SDS011;24864;49.940;19.770;2022-08-19T08:28:04;15.80;;;14.25;;
39128;SDS011;24864;49.940;19.770;2022-08-19T08:30:43;16.10;;;14.23;;
39128;SDS011;24864;49.940;19.770;2022-08-19T08:33:12;17.23;;;13.90;;
39128;SDS011;24864;49.940;19.770;2022-08-19T08:35:47;14.77;;;13.25;;
39128;SDS011;24864;49.940;19.770;2022-08-19T08:38:15;16.35;;;13.18;;
39128;SDS011;24864;49.940;19.770;2022-08-19T08:40:47;18.77;;;13.88;;
39128;SDS011;24864;49.940;19.770;2022-08-19T08:43:22;15.55;;;13.35;;
39128;SDS011;24864;49.940;19.770;2022-08-19T08:45:59;20.08;;;13.25;;
39128;SDS011;24864;49.940;19.770;2022-08-19T08:48:34;17.70;;;13.02;;
39128;SDS011;24864;49.940;19.770;2022-08-19T08:51:07;13.63;;;11.82;;
39128;SDS011;24864;49.940;19.770;2022-08-19T08:53:38;16.02;;;13.52;;
39128;SDS011;24864;49.940;19.770;2022-08-19T08:56:10;13.70;;;12.40;;
39128;SDS011;24864;49.940;19.770;2022-08-19T08:58:46;18.02;;;12.85;;
39128;SDS011;24864;49.940;19.770;2022-08-19T09:01:20;13.75;;;12.38;;
39128;SDS011;24864;49.940;19.770;2022-08-19T09:03:49;13.13;;;11.80;;
39128;SDS011;24864;49.940;19.770;2022-08-19T09:06:19;14.52;;;11.73;;
39128;SDS011;24864;49.940;19.770;2022-08-19T09:08:58;16.17;;;13.25;;
39128;SDS011;24864;49.940;19.770;2022-08-19T09:11:43;18.23;;;13.55;;
39128;SDS011;24864;49.940;19.770;2022-08-19T09:14:23;16.05;;;12.68;;
39128;SDS011;24864;49.940;19.770;2022-08-19T09:17:20;15.95;;;12.95;;
39128;SDS011;24864;49.940;19.770;2022-08-19T09:19:55;14.00;;;12.07;;
39128;SDS011;24864;49.940;19.770;2022-08-19T09:22:30;20.23;;;12.43;;
39128;SDS011;24864;49.940;19.770;2022-08-19T09:24:59;17.23;;;12.00;;
39128;SDS011;24864;49.940;19.770;2022-08-19T09:27:29;13.55;;;11.68;;
39128;SDS011;24864;49.940;19.770;2022-08-19T09:30:11;15.15;;;12.25;;
39128;SDS011;24864;49.940;19.770;2022-08-19T09:32:43;18.90;;;13.40;;
39128;SDS011;24864;49.940;19.770;2022-08-19T09:35:19;21.02;;;12.85;;
39128;SDS011;24864;49.940;19.770;2022-08-19T09:37:49;15.20;;;12.00;;
39128;SDS011;24864;49.940;19.770;2022-08-19T09:40:25;13.02;;;10.90;;
39128;SDS011;24864;49.940;19.770;2022-08-19T09:43:13;15.02;;;11.05;;
39128;SDS011;24864;49.940;19.770;2022-08-19T09:45:59;13.02;;;11.55;;
39128;SDS011;24864;49.940;19.770;2022-08-19T09:48:27;14.38;;;11.57;;
39128;SDS011;24864;49.940;19.770;2022-08-19T09:51:01;13.40;;;10.68;;
39128;SDS011;24864;49.940;19.770;2022-08-19T09:53:30;14.15;;;10.98;;
39128;SDS011;24864;49.940;19.770;2022-08-19T09:55:59;13.38;;;10.10;;
39128;SDS011;24864;49.940;19.770;2022-08-19T09:58:30;11.40;;;9.13;;
39128;SDS011;24864;49.940;19.770;2022-08-19T10:01:00;11.30;;;8.60;;
39128;SDS011;24864;49.940;19.770;2022-08-19T10:03:29;15.65;;;8.57;;
39128;SDS011;24864;49.940;19.770;2022-08-19T10:05:59;17.02;;;10.27;;
39128;SDS011;24864;49.940;19.770;2022-08-19T10:10:59;15.15;;;10.32;;
39128;SDS011;24864;49.940;19.770;2022-08-19T10:13:49;12.45;;;10.18;;
39128;SDS011;24864;49.940;19.770;2022-08-19T10:16:17;14.27;;;10.98;;
39128;SDS011;24864;49.940;19.770;2022-08-19T10:18:54;12.73;;;9.82;;
39128;SDS011;24864;49.940;19.770;2022-08-19T10:21:27;11.32;;;9.93;;
39128;SDS011;24864;49.940;19.770;2022-08-19T10:23:59;11.40;;;10.30;;
39128;SDS011;24864;49.940;19.770;2022-08-19T10:26:31;17.27;;;10.57;;
39128;SDS011;24864;49.940;19.770;2022-08-19T10:29:03;13.25;;;10.07;;
39128;SDS011;24864;49.940;19.770;2022-08-19T10:31:35;12.77;;;9.50;;
39128;SDS011;24864;49.940;19.770;2022-08-19T10:34:23;13.18;;;9.52;;
39128;SDS011;24864;49.940;19.770;2022-08-19T10:36:54;16.17;;;9.60;;
39128;SDS011;24864;49.940;19.770;2022-08-19T10:39:29;11.02;;;9.73;;
39128;SDS011;24864;49.940;19.770;2022-08-19T10:42:08;12.00;;;9.23;;
39128;SDS011;24864;49.940;19.770;2022-08-19T10:44:40;13.55;;;9.30;;
39128;SDS011;24864;49.940;19.770;2022-08-19T10:47:09;11.52;;;8.82;;
39128;SDS011;24864;49.940;19.770;2022-08-19T10:49:51;12.32;;;8.68;;
39128;SDS011;24864;49.940;19.770;2022-08-19T10:52:38;8.88;;;7.93;;
39128;SDS011;24864;49.940;19.770;2022-08-19T10:55:17;12.02;;;9.40;;
39128;SDS011;24864;49.940;19.770;2022-08-19T10:58:09;11.15;;;8.13;;
39128;SDS011;24864;49.940;19.770;2022-08-19T11:00:40;14.70;;;7.75;;
39128;SDS011;24864;49.940;19.770;2022-08-19T11:03:09;10.15;;;8.02;;
39128;SDS011;24864;49.940;19.770;2022-08-19T11:05:37;9.82;;;8.32;;
39128;SDS011;24864;49.940;19.770;2022-08-19T11:08:06;17.13;;;9.38;;
39128;SDS011;24864;49.940;19.770;2022-08-19T11:10:50;11.82;;;8.73;;
39128;SDS011;24864;49.940;19.770;2022-08-19T11:13:28;13.30;;;9.02;;
39128;SDS011;24864;49.940;19.770;2022-08-19T11:15:59;10.40;;;9.20;;
39128;SDS011;24864;49.940;19.770;2022-08-19T11:18:34;9.68;;;8.73;;
39128;SDS011;24864;49.940;19.770;2022-08-19T11:21:07;15.20;;;9.50;;
39128;SDS011;24864;49.940;19.770;2022-08-19T11:23:37;11.07;;;9.98;;
39128;SDS011;24864;49.940;19.770;2022-08-19T11:26:05;10.68;;;9.38;;
39128;SDS011;24864;49.940;19.770;2022-08-19T11:28:33;16.77;;;9.63;;
39128;SDS011;24864;49.940;19.770;2022-08-19T11:31:03;12.38;;;9.40;;
39128;SDS011;24864;49.940;19.770;2022-08-19T11:33:31;14.02;;;9.05;;
39128;SDS011;24864;49.940;19.770;2022-08-19T11:35:59;10.23;;;9.18;;
39128;SDS011;24864;49.940;19.770;2022-08-19T11:38:27;17.05;;;9.15;;
39128;SDS011;24864;49.940;19.770;2022-08-19T11:40:56;10.65;;;9.52;;
39128;SDS011;24864;49.940;19.770;2022-08-19T11:43:25;15.43;;;9.35;;
39128;SDS011;24864;49.940;19.770;2022-08-19T11:45:54;12.32;;;9.23;;
39128;SDS011;24864;49.940;19.770;2022-08-19T11:48:24;10.32;;;9.35;;
39128;SDS011;24864;49.940;19.770;2022-08-19T11:50:53;10.23;;;9.00;;
39128;SDS011;24864;49.940;19.770;2022-08-19T11:53:21;12.48;;;11.05;;
39128;SDS011;24864;49.940;19.770;2022-08-19T11:55:52;12.15;;;9.32;;
39128;SDS011;24864;49.940;19.770;2022-08-19T11:58:22;11.57;;;9.15;;
39128;SDS011;24864;49.940;19.770;2022-08-19T12:00:51;9.68;;;8.05;;
39128;SDS011;24864;49.940;19.770;2022-08-19T12:03:20;10.98;;;8.15;;
39128;SDS011;24864;49.940;19.770;2022-08-19T12:05:49;10.40;;;8.10;;
39128;SDS011;24864;49.940;19.770;2022-08-19T12:08:18;13.77;;;8.80;;
39128;SDS011;24864;49.940;19.770;2022-08-19T12:10:46;11.75;;;8.88;;
39128;SDS011;24864;49.940;19.770;2022-08-19T12:13:14;9.63;;;8.75;;
39128;SDS011;24864;49.940;19.770;2022-08-19T12:15:45;10.48;;;8.73;;
39128;SDS011;24864;49.940;19.770;2022-08-19T12:18:15;10.40;;;9.40;;
39128;SDS011;24864;49.940;19.770;2022-08-19T12:20:42;15.52;;;9.00;;
39128;SDS011;24864;49.940;19.770;2022-08-19T12:23:13;9.93;;;9.13;;
39128;SDS011;24864;49.940;19.770;2022-08-19T12:25:43;10.63;;;8.80;;
39128;SDS011;24864;49.940;19.770;2022-08-19T12:28:16;10.40;;;8.52;;
39128;SDS011;24864;49.940;19.770;2022-08-19T12:30:45;12.85;;;7.55;;
39128;SDS011;24864;49.940;19.770;2022-08-19T12:33:13;11.35;;;7.68;;
39128;SDS011;24864;49.940;19.770;2022-08-19T12:35:43;10.30;;;8.02;;
39128;SDS011;24864;49.940;19.770;2022-08-19T12:38:14;10.82;;;7.78;;
39128;SDS011;24864;49.940;19.770;2022-08-19T12:40:44;9.88;;;7.50;;
39128;SDS011;24864;49.940;19.770;2022-08-19T12:43:14;14.07;;;6.45;;
39128;SDS011;24864;49.940;19.770;2022-08-19T12:45:42;10.30;;;7.15;;
39128;SDS011;24864;49.940;19.770;2022-08-19T12:48:12;9.48;;;7.15;;
39128;SDS011;24864;49.940;19.770;2022-08-19T12:51:00;8.45;;;7.68;;
39128;SDS011;24864;49.940;19.770;2022-08-19T12:53:35;7.72;;;7.03;;
39128;SDS011;24864;49.940;19.770;2022-08-19T12:56:05;12.35;;;10.07;;
39128;SDS011;24864;49.940;19.770;2022-08-19T12:58:38;14.10;;;6.75;;
39128;SDS011;24864;49.940;19.770;2022-08-19T13:01:15;10.48;;;7.38;;
39128;SDS011;24864;49.940;19.770;2022-08-19T13:03:48;8.80;;;7.57;;
39128;SDS011;24864;49.940;19.770;2022-08-19T13:08:48;8.23;;;6.95;;
39128;SDS011;24864;49.940;19.770;2022-08-19T13:11:20;8.82;;;6.55;;
39128;SDS011;24864;49.940;19.770;2022-08-19T13:13:51;10.68;;;7.10;;
39128;SDS011;24864;49.940;19.770;2022-08-19T13:16:21;8.52;;;7.70;;
39128;SDS011;24864;49.940;19.770;2022-08-19T13:18:49;12.13;;;7.25;;
39128;SDS011;24864;49.940;19.770;2022-08-19T13:21:19;8.07;;;7.25;;
39128;SDS011;24864;49.940;19.770;2022-08-19T13:26:18;7.68;;;6.60;;
39128;SDS011;24864;49.940;19.770;2022-08-19T13:28:46;13.35;;;7.47;;
39128;SDS011;24864;49.940;19.770;2022-08-19T13:31:33;11.55;;;7.32;;
39128;SDS011;24864;49.940;19.770;2022-08-19T13:34:28;9.68;;;7.07;;
39128;SDS011;24864;49.940;19.770;2022-08-19T13:36:58;9.20;;;6.88;;
39128;SDS011;24864;49.940;19.770;2022-08-19T13:39:30;12.88;;;6.75;;
39128;SDS011;24864;49.940;19.770;2022-08-19T13:41:59;7.30;;;6.68;;
39128;SDS011;24864;49.940;19.770;2022-08-19T13:44:28;10.38;;;6.50;;
39128;SDS011;24864;49.940;19.770;2022-08-19T13:46:59;8.70;;;6.35;;
39128;SDS011;24864;49.940;19.770;2022-08-19T13:49:33;11.63;;;6.57;;
39128;SDS011;24864;49.940;19.770;2022-08-19T13:52:03;14.43;;;6.68;;
39128;SDS011;24864;49.940;19.770;2022-08-19T13:54:33;8.80;;;6.28;;
39128;SDS011;24864;49.940;19.770;2022-08-19T13:57:00;11.20;;;6.10;;
39128;SDS011;24864;49.940;19.770;2022-08-19T13:59:28;11.55;;;6.63;;
39128;SDS011;24864;49.940;19.770;2022-08-19T14:01:57;8.80;;;5.78;;
39128;SDS011;24864;49.940;19.770;2022-08-19T14:04:25;8.40;;;5.90;;
39128;SDS011;24864;49.940;19.770;2022-08-19T14:06:53;10.98;;;6.63;;
39128;SDS011;24864;49.940;19.770;2022-08-19T14:09:21;9.43;;;5.75;;
39128;SDS011;24864;49.940;19.770;2022-08-19T14:11:50;10.93;;;7.05;;
39128;SDS011;24864;49.940;19.770;2022-08-19T14:14:18;6.78;;;6.18;;
39128;SDS011;24864;49.940;19.770;2022-08-19T14:16:46;8.38;;;6.65;;
39128;SDS011;24864;49.940;19.770;2022-08-19T14:19:14;7.65;;;6.45;;
39128;SDS011;24864;49.940;19.770;2022-08-19T14:21:42;8.23;;;6.68;;
39128;SDS011;24864;49.940;19.770;2022-08-19T14:24:10;10.70;;;6.70;;
39128;SDS011;24864;49.940;19.770;2022-08-19T14:26:38;15.27;;;7.47;;
39128;SDS011;24864;49.940;19.770;2022-08-19T14:29:07;8.95;;;6.85;;
39128;SDS011;24864;49.940;19.770;2022-08-19T14:31:35;7.07;;;6.55;;
39128;SDS011;24864;49.940;19.770;2022-08-19T14:34:03;10.75;;;7.00;;
39128;SDS011;24864;49.940;19.770;2022-08-19T14:36:31;10.25;;;6.90;;
39128;SDS011;24864;49.940;19.770;2022-08-19T14:39:04;11.23;;;7.30;;
39128;SDS011;24864;49.940;19.770;2022-08-19T14:41:32;8.82;;;7.25;;
39128;SDS011;24864;49.940;19.770;2022-08-19T14:44:00;8.25;;;6.85;;
39128;SDS011;24864;49.940;19.770;2022-08-19T14:46:29;7.85;;;7.10;;
39128;SDS011;24864;49.940;19.770;2022-08-19T14:48:58;11.20;;;6.82;;
39128;SDS011;24864;49.940;19.770;2022-08-19T14:51:26;9.23;;;7.55;;
39128;SDS011;24864;49.940;19.770;2022-08-19T14:53:54;16.27;;;11.57;;
39128;SDS011;24864;49.940;19.770;2022-08-19T14:56:23;27.92;;;25.00;;
39128;SDS011;24864;49.940;19.770;2022-08-19T14:58:53;20.00;;;17.98;;
39128;SDS011;24864;49.940;19.770;2022-08-19T15:01:22;9.90;;;8.23;;
39128;SDS011;24864;49.940;19.770;2022-08-19T15:03:51;20.70;;;13.52;;
39128;SDS011;24864;49.940;19.770;2022-08-19T15:06:21;23.13;;;19.27;;
39128;SDS011;24864;49.940;19.770;2022-08-19T15:08:50;16.58;;;15.10;;
39128;SDS011;24864;49.940;19.770;2022-08-19T15:11:20;15.02;;;13.63;;
39128;SDS011;24864;49.940;19.770;2022-08-19T15:13:49;21.00;;;15.98;;